sensor_id;sensor_type;location;lat;lon;timestamp;P1;durP1;ratioP1;P2;durP2;ratioP2
53533;SDS011;39421;53.204;6.568;2022-07-18T00:00:30;5.63;;;3.60;;
53533;SDS011;39421;53.204;6.568;2022-07-18T00:02:56;5.85;;;3.33;;
53533;SDS011;39421;53.204;6.568;2022-07-18T00:05:21;4.90;;;3.50;;
53533;SDS011;39421;53.204;6.568;2022-07-18T00:07:47;4.93;;;3.63;;
53533;SDS011;39421;53.204;6.568;2022-07-18T00:10:13;4.57;;;3.30;;
53533;SDS011;39421;53.204;6.568;2022-07-18T00:12:39;6.10;;;3.60;;
53533;SDS011;39421;53.204;6.568;2022-07-18T00:15:05;6.40;;;3.60;;
53533;SDS011;39421;53.204;6.568;2022-07-18T00:17:33;5.07;;;3.58;;
53533;SDS011;39421;53.204;6.568;2022-07-18T00:19:59;5.33;;;3.73;;
53533;SDS011;39421;53.204;6.568;2022-07-18T00:22:24;5.50;;;3.30;;
53533;SDS011;39421;53.204;6.568;2022-07-18T00:24:50;6.03;;;3.70;;
53533;SDS011;39421;53.204;6.568;2022-07-18T00:27:15;6.25;;;4.03;;
53533;SDS011;39421;53.204;6.568;2022-07-18T00:29:41;5.87;;;3.90;;
53533;SDS011;39421;53.204;6.568;2022-07-18T00:32:07;5.87;;;4.00;;
53533;SDS011;39421;53.204;6.568;2022-07-18T00:34:34;6.40;;;3.72;;
53533;SDS011;39421;53.204;6.568;2022-07-18T00:37:00;5.18;;;3.42;;
53533;SDS011;39421;53.204;6.568;2022-07-18T00:39:26;6.72;;;4.10;;
53533;SDS011;39421;53.204;6.568;2022-07-18T00:41:52;6.43;;;3.90;;
53533;SDS011;39421;53.204;6.568;2022-07-18T00:44:22;5.60;;;4.03;;
53533;SDS011;39421;53.204;6.568;2022-07-18T00:46:51;5.43;;;3.65;;
53533;SDS011;39421;53.204;6.568;2022-07-18T00:49:21;5.38;;;3.67;;
53533;SDS011;39421;53.204;6.568;2022-07-18T00:51:47;4.43;;;3.67;;
53533;SDS011;39421;53.204;6.568;2022-07-18T00:54:12;4.88;;;3.78;;
53533;SDS011;39421;53.204;6.568;2022-07-18T00:56:39;5.65;;;3.95;;
53533;SDS011;39421;53.204;6.568;2022-07-18T00:59:05;5.68;;;3.90;;
53533;SDS011;39421;53.204;6.568;2022-07-18T01:01:31;5.63;;;3.70;;
53533;SDS011;39421;53.204;6.568;2022-07-18T01:04:11;5.47;;;3.70;;
53533;SDS011;39421;53.204;6.568;2022-07-18T01:06:40;7.30;;;3.97;;
53533;SDS011;39421;53.204;6.568;2022-07-18T01:09:07;5.28;;;3.58;;
53533;SDS011;39421;53.204;6.568;2022-07-18T01:11:33;5.75;;;3.85;;
53533;SDS011;39421;53.204;6.568;2022-07-18T01:14:00;5.35;;;3.80;;
53533;SDS011;39421;53.204;6.568;2022-07-18T01:16:27;4.72;;;3.80;;
53533;SDS011;39421;53.204;6.568;2022-07-18T01:18:53;5.88;;;3.88;;
53533;SDS011;39421;53.204;6.568;2022-07-18T01:21:18;4.97;;;3.78;;
53533;SDS011;39421;53.204;6.568;2022-07-18T01:23:44;4.80;;;3.55;;
53533;SDS011;39421;53.204;6.568;2022-07-18T01:26:11;6.47;;;4.37;;
53533;SDS011;39421;53.204;6.568;2022-07-18T01:28:38;7.00;;;4.20;;
53533;SDS011;39421;53.204;6.568;2022-07-18T01:31:04;6.10;;;4.32;;
53533;SDS011;39421;53.204;6.568;2022-07-18T01:33:31;6.38;;;4.07;;
53533;SDS011;39421;53.204;6.568;2022-07-18T01:35:58;5.80;;;4.17;;
53533;SDS011;39421;53.204;6.568;2022-07-18T01:38:28;5.97;;;4.43;;
53533;SDS011;39421;53.204;6.568;2022-07-18T01:40:56;6.28;;;4.20;;
53533;SDS011;39421;53.204;6.568;2022-07-18T01:43:25;5.28;;;4.18;;
53533;SDS011;39421;53.204;6.568;2022-07-18T01:45:51;6.25;;;4.40;;
53533;SDS011;39421;53.204;6.568;2022-07-18T01:48:18;5.97;;;4.53;;
53533;SDS011;39421;53.204;6.568;2022-07-18T01:50:44;5.65;;;4.15;;
53533;SDS011;39421;53.204;6.568;2022-07-18T01:53:10;7.82;;;4.60;;
53533;SDS011;39421;53.204;6.568;2022-07-18T01:55:36;8.00;;;4.93;;
53533;SDS011;39421;53.204;6.568;2022-07-18T01:58:02;8.07;;;5.10;;
53533;SDS011;39421;53.204;6.568;2022-07-18T02:00:27;7.53;;;4.90;;
53533;SDS011;39421;53.204;6.568;2022-07-18T02:02:53;7.30;;;5.07;;
53533;SDS011;39421;53.204;6.568;2022-07-18T02:05:19;8.30;;;4.65;;
53533;SDS011;39421;53.204;6.568;2022-07-18T02:07:44;6.53;;;4.63;;
53533;SDS011;39421;53.204;6.568;2022-07-18T02:10:14;7.83;;;4.60;;
53533;SDS011;39421;53.204;6.568;2022-07-18T02:12:41;5.38;;;4.57;;
53533;SDS011;39421;53.204;6.568;2022-07-18T02:15:08;6.50;;;4.82;;
53533;SDS011;39421;53.204;6.568;2022-07-18T02:17:35;6.75;;;5.05;;
53533;SDS011;39421;53.204;6.568;2022-07-18T02:20:02;5.88;;;4.35;;
53533;SDS011;39421;53.204;6.568;2022-07-18T02:22:33;6.83;;;4.53;;
53533;SDS011;39421;53.204;6.568;2022-07-18T02:24:58;6.37;;;4.80;;
53533;SDS011;39421;53.204;6.568;2022-07-18T02:27:24;6.20;;;4.60;;
53533;SDS011;39421;53.204;6.568;2022-07-18T02:29:50;5.88;;;4.30;;
53533;SDS011;39421;53.204;6.568;2022-07-18T02:32:16;6.93;;;4.38;;
53533;SDS011;39421;53.204;6.568;2022-07-18T02:34:41;5.93;;;4.25;;
53533;SDS011;39421;53.204;6.568;2022-07-18T02:37:07;5.68;;;4.30;;
53533;SDS011;39421;53.204;6.568;2022-07-18T02:39:33;6.95;;;4.65;;
53533;SDS011;39421;53.204;6.568;2022-07-18T02:41:59;7.13;;;4.55;;
53533;SDS011;39421;53.204;6.568;2022-07-18T02:44:25;5.97;;;4.65;;
53533;SDS011;39421;53.204;6.568;2022-07-18T02:46:51;6.68;;;4.50;;
53533;SDS011;39421;53.204;6.568;2022-07-18T02:49:16;6.00;;;4.65;;
53533;SDS011;39421;53.204;6.568;2022-07-18T02:51:55;7.50;;;4.97;;
53533;SDS011;39421;53.204;6.568;2022-07-18T02:54:23;6.82;;;4.38;;
53533;SDS011;39421;53.204;6.568;2022-07-18T02:56:49;7.45;;;4.93;;
53533;SDS011;39421;53.204;6.568;2022-07-18T02:59:15;7.03;;;5.28;;
53533;SDS011;39421;53.204;6.568;2022-07-18T03:01:40;6.43;;;4.47;;
53533;SDS011;39421;53.204;6.568;2022-07-18T03:04:06;6.53;;;4.83;;
53533;SDS011;39421;53.204;6.568;2022-07-18T03:06:32;7.20;;;4.67;;
53533;SDS011;39421;53.204;6.568;2022-07-18T03:08:58;6.90;;;4.53;;
53533;SDS011;39421;53.204;6.568;2022-07-18T03:11:23;6.95;;;4.70;;
53533;SDS011;39421;53.204;6.568;2022-07-18T03:13:49;7.40;;;4.53;;
53533;SDS011;39421;53.204;6.568;2022-07-18T03:16:15;6.53;;;4.67;;
53533;SDS011;39421;53.204;6.568;2022-07-18T03:18:40;7.40;;;4.60;;
53533;SDS011;39421;53.204;6.568;2022-07-18T03:21:06;6.07;;;4.60;;
53533;SDS011;39421;53.204;6.568;2022-07-18T03:23:31;6.65;;;4.63;;
53533;SDS011;39421;53.204;6.568;2022-07-18T03:25:57;5.75;;;4.38;;
53533;SDS011;39421;53.204;6.568;2022-07-18T03:28:23;7.40;;;5.00;;
53533;SDS011;39421;53.204;6.568;2022-07-18T03:30:48;7.87;;;4.63;;
53533;SDS011;39421;53.204;6.568;2022-07-18T03:33:14;7.67;;;4.50;;
53533;SDS011;39421;53.204;6.568;2022-07-18T03:35:40;7.40;;;4.57;;
53533;SDS011;39421;53.204;6.568;2022-07-18T03:38:05;7.38;;;5.05;;
53533;SDS011;39421;53.204;6.568;2022-07-18T03:40:31;7.43;;;4.50;;
53533;SDS011;39421;53.204;6.568;2022-07-18T03:42:57;9.80;;;4.65;;
53533;SDS011;39421;53.204;6.568;2022-07-18T03:45:23;6.80;;;4.72;;
53533;SDS011;39421;53.204;6.568;2022-07-18T03:47:49;7.57;;;4.80;;
53533;SDS011;39421;53.204;6.568;2022-07-18T03:50:14;8.33;;;5.13;;
53533;SDS011;39421;53.204;6.568;2022-07-18T03:52:40;7.33;;;4.63;;
53533;SDS011;39421;53.204;6.568;2022-07-18T03:55:06;6.30;;;4.70;;
53533;SDS011;39421;53.204;6.568;2022-07-18T03:57:32;6.70;;;4.68;;
53533;SDS011;39421;53.204;6.568;2022-07-18T03:59:58;7.25;;;4.45;;
53533;SDS011;39421;53.204;6.568;2022-07-18T04:02:24;9.23;;;4.70;;
53533;SDS011;39421;53.204;6.568;2022-07-18T04:04:49;7.77;;;5.00;;
53533;SDS011;39421;53.204;6.568;2022-07-18T04:07:15;6.57;;;4.30;;
53533;SDS011;39421;53.204;6.568;2022-07-18T04:09:41;7.90;;;4.70;;
53533;SDS011;39421;53.204;6.568;2022-07-18T04:12:06;6.65;;;4.50;;
53533;SDS011;39421;53.204;6.568;2022-07-18T04:14:32;7.43;;;4.87;;
53533;SDS011;39421;53.204;6.568;2022-07-18T04:16:57;9.53;;;4.53;;
53533;SDS011;39421;53.204;6.568;2022-07-18T04:19:23;6.00;;;4.50;;
53533;SDS011;39421;53.204;6.568;2022-07-18T04:21:50;10.50;;;5.20;;
53533;SDS011;39421;53.204;6.568;2022-07-18T04:24:15;10.07;;;5.05;;
53533;SDS011;39421;53.204;6.568;2022-07-18T04:26:41;7.60;;;4.37;;
53533;SDS011;39421;53.204;6.568;2022-07-18T04:29:07;6.63;;;4.80;;
53533;SDS011;39421;53.204;6.568;2022-07-18T04:31:33;9.20;;;4.53;;
53533;SDS011;39421;53.204;6.568;2022-07-18T04:33:59;5.55;;;4.13;;
53533;SDS011;39421;53.204;6.568;2022-07-18T04:36:25;6.63;;;4.30;;
53533;SDS011;39421;53.204;6.568;2022-07-18T04:38:50;7.43;;;4.60;;
53533;SDS011;39421;53.204;6.568;2022-07-18T04:41:16;9.85;;;5.00;;
53533;SDS011;39421;53.204;6.568;2022-07-18T04:43:44;6.72;;;4.20;;
53533;SDS011;39421;53.204;6.568;2022-07-18T04:46:10;7.40;;;4.95;;
53533;SDS011;39421;53.204;6.568;2022-07-18T04:48:36;6.93;;;4.50;;
53533;SDS011;39421;53.204;6.568;2022-07-18T04:51:03;7.68;;;4.40;;
53533;SDS011;39421;53.204;6.568;2022-07-18T04:53:29;6.03;;;3.73;;
53533;SDS011;39421;53.204;6.568;2022-07-18T04:55:55;7.27;;;4.53;;
53533;SDS011;39421;53.204;6.568;2022-07-18T04:58:21;7.77;;;4.23;;
53533;SDS011;39421;53.204;6.568;2022-07-18T05:00:46;7.43;;;4.50;;
53533;SDS011;39421;53.204;6.568;2022-07-18T05:03:13;8.73;;;4.30;;
53533;SDS011;39421;53.204;6.568;2022-07-18T05:05:39;6.22;;;3.60;;
53533;SDS011;39421;53.204;6.568;2022-07-18T05:08:05;6.10;;;3.77;;
53533;SDS011;39421;53.204;6.568;2022-07-18T05:10:31;4.97;;;3.35;;
53533;SDS011;39421;53.204;6.568;2022-07-18T05:12:58;6.88;;;3.65;;
53533;SDS011;39421;53.204;6.568;2022-07-18T05:15:24;7.72;;;3.80;;
53533;SDS011;39421;53.204;6.568;2022-07-18T05:17:51;6.82;;;3.88;;
53533;SDS011;39421;53.204;6.568;2022-07-18T05:20:18;6.95;;;3.65;;
53533;SDS011;39421;53.204;6.568;2022-07-18T05:22:45;5.75;;;3.58;;
53533;SDS011;39421;53.204;6.568;2022-07-18T05:25:12;6.07;;;3.63;;
53533;SDS011;39421;53.204;6.568;2022-07-18T05:27:39;5.68;;;3.50;;
53533;SDS011;39421;53.204;6.568;2022-07-18T05:30:06;5.65;;;3.38;;
53533;SDS011;39421;53.204;6.568;2022-07-18T05:32:33;6.88;;;3.55;;
53533;SDS011;39421;53.204;6.568;2022-07-18T05:34:58;9.27;;;3.63;;
53533;SDS011;39421;53.204;6.568;2022-07-18T05:37:24;4.72;;;3.30;;
53533;SDS011;39421;53.204;6.568;2022-07-18T05:39:50;5.28;;;3.38;;
53533;SDS011;39421;53.204;6.568;2022-07-18T05:42:19;5.73;;;3.53;;
53533;SDS011;39421;53.204;6.568;2022-07-18T05:44:45;7.53;;;3.23;;
53533;SDS011;39421;53.204;6.568;2022-07-18T05:47:10;5.70;;;3.10;;
53533;SDS011;39421;53.204;6.568;2022-07-18T05:49:38;4.63;;;3.30;;
53533;SDS011;39421;53.204;6.568;2022-07-18T05:52:04;5.10;;;3.40;;
53533;SDS011;39421;53.204;6.568;2022-07-18T05:54:30;6.35;;;3.30;;
53533;SDS011;39421;53.204;6.568;2022-07-18T05:56:56;6.30;;;3.10;;
53533;SDS011;39421;53.204;6.568;2022-07-18T05:59:22;6.63;;;3.20;;
53533;SDS011;39421;53.204;6.568;2022-07-18T06:01:48;5.63;;;3.33;;
53533;SDS011;39421;53.204;6.568;2022-07-18T06:04:13;5.30;;;3.00;;
53533;SDS011;39421;53.204;6.568;2022-07-18T06:06:39;6.00;;;3.00;;
53533;SDS011;39421;53.204;6.568;2022-07-18T06:09:05;4.40;;;2.78;;
53533;SDS011;39421;53.204;6.568;2022-07-18T06:11:31;5.05;;;2.90;;
53533;SDS011;39421;53.204;6.568;2022-07-18T06:13:57;5.20;;;3.00;;
53533;SDS011;39421;53.204;6.568;2022-07-18T06:16:23;5.30;;;2.90;;
53533;SDS011;39421;53.204;6.568;2022-07-18T06:18:48;9.35;;;3.35;;
53533;SDS011;39421;53.204;6.568;2022-07-18T06:21:14;12.68;;;3.65;;
53533;SDS011;39421;53.204;6.568;2022-07-18T06:23:40;5.43;;;3.10;;
53533;SDS011;39421;53.204;6.568;2022-07-18T06:26:06;7.17;;;2.93;;
53533;SDS011;39421;53.204;6.568;2022-07-18T06:28:32;9.43;;;3.20;;
53533;SDS011;39421;53.204;6.568;2022-07-18T06:30:57;5.63;;;2.50;;
53533;SDS011;39421;53.204;6.568;2022-07-18T06:33:23;14.38;;;3.80;;
53533;SDS011;39421;53.204;6.568;2022-07-18T06:35:49;8.32;;;2.90;;
53533;SDS011;39421;53.204;6.568;2022-07-18T06:38:15;5.15;;;2.83;;
53533;SDS011;39421;53.204;6.568;2022-07-18T06:40:42;5.50;;;2.85;;
53533;SDS011;39421;53.204;6.568;2022-07-18T06:43:08;10.57;;;3.10;;
53533;SDS011;39421;53.204;6.568;2022-07-18T06:45:34;6.93;;;2.90;;
53533;SDS011;39421;53.204;6.568;2022-07-18T06:48:00;5.20;;;2.50;;
53533;SDS011;39421;53.204;6.568;2022-07-18T06:50:25;6.00;;;2.70;;
53533;SDS011;39421;53.204;6.568;2022-07-18T06:52:51;4.20;;;2.72;;
53533;SDS011;39421;53.204;6.568;2022-07-18T06:55:18;5.28;;;2.45;;
53533;SDS011;39421;53.204;6.568;2022-07-18T06:57:44;6.07;;;2.63;;
53533;SDS011;39421;53.204;6.568;2022-07-18T07:00:10;6.10;;;2.60;;
53533;SDS011;39421;53.204;6.568;2022-07-18T07:02:42;4.18;;;2.45;;
53533;SDS011;39421;53.204;6.568;2022-07-18T07:05:09;3.70;;;2.28;;
53533;SDS011;39421;53.204;6.568;2022-07-18T07:07:36;4.38;;;2.35;;
53533;SDS011;39421;53.204;6.568;2022-07-18T07:10:02;4.03;;;2.60;;
53533;SDS011;39421;53.204;6.568;2022-07-18T07:12:28;6.18;;;2.63;;
53533;SDS011;39421;53.204;6.568;2022-07-18T07:14:54;7.78;;;2.60;;
53533;SDS011;39421;53.204;6.568;2022-07-18T07:17:19;7.97;;;2.53;;
53533;SDS011;39421;53.204;6.568;2022-07-18T07:19:45;6.47;;;2.57;;
53533;SDS011;39421;53.204;6.568;2022-07-18T07:22:11;4.82;;;2.63;;
53533;SDS011;39421;53.204;6.568;2022-07-18T07:24:37;8.38;;;2.97;;
53533;SDS011;39421;53.204;6.568;2022-07-18T07:27:05;8.77;;;3.15;;
53533;SDS011;39421;53.204;6.568;2022-07-18T07:29:30;4.20;;;2.25;;
53533;SDS011;39421;53.204;6.568;2022-07-18T07:31:56;4.82;;;2.40;;
53533;SDS011;39421;53.204;6.568;2022-07-18T07:34:22;4.32;;;2.28;;
53533;SDS011;39421;53.204;6.568;2022-07-18T07:36:48;15.70;;;3.58;;
53533;SDS011;39421;53.204;6.568;2022-07-18T07:39:14;5.47;;;2.40;;
53533;SDS011;39421;53.204;6.568;2022-07-18T07:41:39;9.03;;;2.87;;
53533;SDS011;39421;53.204;6.568;2022-07-18T07:44:05;5.25;;;2.50;;
53533;SDS011;39421;53.204;6.568;2022-07-18T07:46:31;6.15;;;2.42;;
53533;SDS011;39421;53.204;6.568;2022-07-18T07:48:56;5.20;;;2.30;;
53533;SDS011;39421;53.204;6.568;2022-07-18T07:51:22;4.97;;;2.30;;
53533;SDS011;39421;53.204;6.568;2022-07-18T07:53:48;4.50;;;2.30;;
53533;SDS011;39421;53.204;6.568;2022-07-18T07:56:13;6.20;;;2.42;;
53533;SDS011;39421;53.204;6.568;2022-07-18T07:58:43;8.05;;;2.25;;
53533;SDS011;39421;53.204;6.568;2022-07-18T08:01:09;3.57;;;2.10;;
53533;SDS011;39421;53.204;6.568;2022-07-18T08:03:36;5.65;;;2.28;;
53533;SDS011;39421;53.204;6.568;2022-07-18T08:06:02;2.90;;;2.08;;
53533;SDS011;39421;53.204;6.568;2022-07-18T08:08:28;4.97;;;2.20;;
53533;SDS011;39421;53.204;6.568;2022-07-18T08:10:54;3.67;;;1.93;;
53533;SDS011;39421;53.204;6.568;2022-07-18T08:13:19;5.05;;;2.22;;
53533;SDS011;39421;53.204;6.568;2022-07-18T08:15:45;4.82;;;2.00;;
53533;SDS011;39421;53.204;6.568;2022-07-18T08:18:14;3.50;;;1.90;;
53533;SDS011;39421;53.204;6.568;2022-07-18T08:20:43;3.40;;;1.98;;
53533;SDS011;39421;53.204;6.568;2022-07-18T08:23:09;5.30;;;2.00;;
53533;SDS011;39421;53.204;6.568;2022-07-18T08:25:37;8.07;;;2.65;;
53533;SDS011;39421;53.204;6.568;2022-07-18T08:28:05;7.60;;;2.65;;
53533;SDS011;39421;53.204;6.568;2022-07-18T08:30:32;5.13;;;2.20;;
53533;SDS011;39421;53.204;6.568;2022-07-18T08:32:59;6.53;;;2.20;;
53533;SDS011;39421;53.204;6.568;2022-07-18T08:35:26;31.70;;;5.10;;
53533;SDS011;39421;53.204;6.568;2022-07-18T08:37:52;5.82;;;2.35;;
53533;SDS011;39421;53.204;6.568;2022-07-18T08:40:18;4.45;;;2.17;;
53533;SDS011;39421;53.204;6.568;2022-07-18T08:42:44;39.72;;;7.20;;
53533;SDS011;39421;53.204;6.568;2022-07-18T08:45:10;5.57;;;2.20;;
53533;SDS011;39421;53.204;6.568;2022-07-18T08:47:36;6.33;;;2.30;;
53533;SDS011;39421;53.204;6.568;2022-07-18T08:50:02;6.43;;;1.90;;
53533;SDS011;39421;53.204;6.568;2022-07-18T08:52:29;7.03;;;2.30;;
53533;SDS011;39421;53.204;6.568;2022-07-18T08:54:56;2.95;;;1.80;;
53533;SDS011;39421;53.204;6.568;2022-07-18T08:57:22;3.10;;;1.90;;
53533;SDS011;39421;53.204;6.568;2022-07-18T08:59:48;6.25;;;2.55;;
53533;SDS011;39421;53.204;6.568;2022-07-18T09:02:14;5.28;;;2.05;;
53533;SDS011;39421;53.204;6.568;2022-07-18T09:04:41;4.38;;;1.80;;
53533;SDS011;39421;53.204;6.568;2022-07-18T09:07:08;3.58;;;1.80;;
53533;SDS011;39421;53.204;6.568;2022-07-18T09:09:38;2.53;;;1.60;;
53533;SDS011;39421;53.204;6.568;2022-07-18T09:12:07;4.63;;;1.83;;
53533;SDS011;39421;53.204;6.568;2022-07-18T09:14:38;4.85;;;1.95;;
53533;SDS011;39421;53.204;6.568;2022-07-18T09:22:37;5.00;;;2.07;;
53533;SDS011;39421;53.204;6.568;2022-07-18T09:25:11;3.47;;;1.80;;
53533;SDS011;39421;53.204;6.568;2022-07-18T09:27:42;3.58;;;1.92;;
53533;SDS011;39421;53.204;6.568;2022-07-18T09:30:29;3.80;;;1.85;;
53533;SDS011;39421;53.204;6.568;2022-07-18T09:35:27;3.80;;;1.73;;
53533;SDS011;39421;53.204;6.568;2022-07-18T09:38:04;3.20;;;1.70;;
53533;SDS011;39421;53.204;6.568;2022-07-18T09:40:37;4.05;;;1.90;;
53533;SDS011;39421;53.204;6.568;2022-07-18T09:43:04;5.13;;;1.80;;
53533;SDS011;39421;53.204;6.568;2022-07-18T09:45:36;5.85;;;2.00;;
53533;SDS011;39421;53.204;6.568;2022-07-18T09:48:07;2.83;;;1.73;;
53533;SDS011;39421;53.204;6.568;2022-07-18T09:50:38;3.20;;;1.70;;
53533;SDS011;39421;53.204;6.568;2022-07-18T09:53:15;5.57;;;1.88;;
53533;SDS011;39421;53.204;6.568;2022-07-18T09:55:52;6.20;;;2.10;;
53533;SDS011;39421;53.204;6.568;2022-07-18T09:58:27;4.70;;;1.85;;
53533;SDS011;39421;53.204;6.568;2022-07-18T10:00:55;5.38;;;1.90;;
53533;SDS011;39421;53.204;6.568;2022-07-18T10:03:22;4.90;;;2.00;;
53533;SDS011;39421;53.204;6.568;2022-07-18T10:05:49;4.25;;;1.95;;
53533;SDS011;39421;53.204;6.568;2022-07-18T10:08:17;4.72;;;1.92;;
53533;SDS011;39421;53.204;6.568;2022-07-18T10:10:47;7.80;;;2.40;;
53533;SDS011;39421;53.204;6.568;2022-07-18T10:13:14;5.55;;;1.92;;
53533;SDS011;39421;53.204;6.568;2022-07-18T10:15:42;4.45;;;1.70;;
53533;SDS011;39421;53.204;6.568;2022-07-18T10:18:10;4.50;;;2.10;;
53533;SDS011;39421;53.204;6.568;2022-07-18T10:20:39;9.07;;;2.40;;
53533;SDS011;39421;53.204;6.568;2022-07-18T10:23:12;2.90;;;1.65;;
53533;SDS011;39421;53.204;6.568;2022-07-18T10:25:44;5.70;;;2.00;;
53533;SDS011;39421;53.204;6.568;2022-07-18T10:28:11;4.22;;;2.25;;
53533;SDS011;39421;53.204;6.568;2022-07-18T10:36:15;3.50;;;2.22;;
53533;SDS011;39421;53.204;6.568;2022-07-18T10:41:27;4.82;;;2.38;;
53533;SDS011;39421;53.204;6.568;2022-07-18T10:43:52;4.20;;;2.00;;
53533;SDS011;39421;53.204;6.568;2022-07-18T10:46:18;4.13;;;2.03;;
53533;SDS011;39421;53.204;6.568;2022-07-18T10:48:47;3.97;;;2.30;;
53533;SDS011;39421;53.204;6.568;2022-07-18T10:51:17;4.83;;;2.43;;
53533;SDS011;39421;53.204;6.568;2022-07-18T10:58:57;5.60;;;2.53;;
53533;SDS011;39421;53.204;6.568;2022-07-18T11:01:23;4.55;;;2.70;;
53533;SDS011;39421;53.204;6.568;2022-07-18T11:04:21;5.90;;;2.80;;
53533;SDS011;39421;53.204;6.568;2022-07-18T11:07:10;6.68;;;3.05;;
53533;SDS011;39421;53.204;6.568;2022-07-18T11:09:45;5.67;;;2.73;;
53533;SDS011;39421;53.204;6.568;2022-07-18T11:15:14;5.77;;;3.10;;
53533;SDS011;39421;53.204;6.568;2022-07-18T11:20:41;4.53;;;3.08;;
53533;SDS011;39421;53.204;6.568;2022-07-18T11:23:14;11.13;;;3.65;;
53533;SDS011;39421;53.204;6.568;2022-07-18T11:25:43;13.85;;;4.38;;
53533;SDS011;39421;53.204;6.568;2022-07-18T11:28:10;6.03;;;3.08;;
53533;SDS011;39421;53.204;6.568;2022-07-18T11:30:37;7.28;;;3.00;;
53533;SDS011;39421;53.204;6.568;2022-07-18T11:33:04;7.32;;;3.50;;
53533;SDS011;39421;53.204;6.568;2022-07-18T11:35:31;15.77;;;4.78;;
53533;SDS011;39421;53.204;6.568;2022-07-18T11:37:57;5.95;;;3.15;;
53533;SDS011;39421;53.204;6.568;2022-07-18T11:40:29;5.80;;;2.90;;
53533;SDS011;39421;53.204;6.568;2022-07-18T11:42:56;5.35;;;3.05;;
53533;SDS011;39421;53.204;6.568;2022-07-18T11:45:22;6.45;;;3.30;;
53533;SDS011;39421;53.204;6.568;2022-07-18T11:47:48;9.07;;;3.53;;
53533;SDS011;39421;53.204;6.568;2022-07-18T11:50:17;7.88;;;3.47;;
53533;SDS011;39421;53.204;6.568;2022-07-18T11:52:55;9.85;;;3.10;;
53533;SDS011;39421;53.204;6.568;2022-07-18T11:55:31;5.80;;;3.17;;
53533;SDS011;39421;53.204;6.568;2022-07-18T11:58:05;6.20;;;3.05;;
53533;SDS011;39421;53.204;6.568;2022-07-18T12:00:34;9.45;;;3.90;;
53533;SDS011;39421;53.204;6.568;2022-07-18T12:03:10;7.07;;;3.50;;
53533;SDS011;39421;53.204;6.568;2022-07-18T12:05:44;8.20;;;3.55;;
53533;SDS011;39421;53.204;6.568;2022-07-18T12:11:03;5.75;;;3.40;;
53533;SDS011;39421;53.204;6.568;2022-07-18T12:16:25;4.70;;;2.85;;
53533;SDS011;39421;53.204;6.568;2022-07-18T12:19:01;5.27;;;3.03;;
53533;SDS011;39421;53.204;6.568;2022-07-18T12:21:46;4.72;;;2.95;;
53533;SDS011;39421;53.204;6.568;2022-07-18T12:27:09;7.70;;;3.40;;
53533;SDS011;39421;53.204;6.568;2022-07-18T12:35:20;7.72;;;3.33;;
53533;SDS011;39421;53.204;6.568;2022-07-18T12:37:53;5.20;;;3.30;;
53533;SDS011;39421;53.204;6.568;2022-07-18T12:40:47;6.75;;;3.17;;
53533;SDS011;39421;53.204;6.568;2022-07-18T12:43:25;6.80;;;3.60;;
53533;SDS011;39421;53.204;6.568;2022-07-18T12:46:05;4.05;;;3.10;;
53533;SDS011;39421;53.204;6.568;2022-07-18T12:48:35;4.43;;;3.33;;
53533;SDS011;39421;53.204;6.568;2022-07-18T12:51:09;15.45;;;4.25;;
53533;SDS011;39421;53.204;6.568;2022-07-18T12:53:37;6.03;;;3.35;;
53533;SDS011;39421;53.204;6.568;2022-07-18T12:56:04;5.43;;;3.30;;
53533;SDS011;39421;53.204;6.568;2022-07-18T12:58:30;6.05;;;3.22;;
53533;SDS011;39421;53.204;6.568;2022-07-18T13:00:55;5.70;;;3.53;;
53533;SDS011;39421;53.204;6.568;2022-07-18T13:03:21;4.60;;;3.20;;
53533;SDS011;39421;53.204;6.568;2022-07-18T13:05:48;5.43;;;3.50;;
53533;SDS011;39421;53.204;6.568;2022-07-18T13:08:14;5.97;;;3.33;;
53533;SDS011;39421;53.204;6.568;2022-07-18T13:10:40;5.50;;;3.33;;
53533;SDS011;39421;53.204;6.568;2022-07-18T13:13:07;7.90;;;3.80;;
53533;SDS011;39421;53.204;6.568;2022-07-18T13:15:33;10.05;;;4.20;;
53533;SDS011;39421;53.204;6.568;2022-07-18T13:18:00;4.40;;;3.60;;
53533;SDS011;39421;53.204;6.568;2022-07-18T13:20:26;9.23;;;4.10;;
53533;SDS011;39421;53.204;6.568;2022-07-18T13:22:52;7.05;;;3.17;;
53533;SDS011;39421;53.204;6.568;2022-07-18T13:25:18;4.72;;;3.33;;
53533;SDS011;39421;53.204;6.568;2022-07-18T13:27:45;4.68;;;3.25;;
53533;SDS011;39421;53.204;6.568;2022-07-18T13:30:11;5.17;;;3.27;;
53533;SDS011;39421;53.204;6.568;2022-07-18T13:32:37;4.32;;;3.00;;
53533;SDS011;39421;53.204;6.568;2022-07-18T13:35:03;5.43;;;3.45;;
53533;SDS011;39421;53.204;6.568;2022-07-18T13:37:30;7.95;;;3.72;;
53533;SDS011;39421;53.204;6.568;2022-07-18T13:39:55;5.13;;;3.50;;
53533;SDS011;39421;53.204;6.568;2022-07-18T13:42:21;8.18;;;3.70;;
53533;SDS011;39421;53.204;6.568;2022-07-18T13:44:47;5.65;;;3.47;;
53533;SDS011;39421;53.204;6.568;2022-07-18T13:47:14;5.82;;;3.45;;
53533;SDS011;39421;53.204;6.568;2022-07-18T13:49:40;5.03;;;3.33;;
53533;SDS011;39421;53.204;6.568;2022-07-18T13:52:07;5.88;;;3.30;;
53533;SDS011;39421;53.204;6.568;2022-07-18T13:54:33;5.25;;;3.25;;
53533;SDS011;39421;53.204;6.568;2022-07-18T13:56:59;4.53;;;3.10;;
53533;SDS011;39421;53.204;6.568;2022-07-18T13:59:24;5.13;;;3.30;;
53533;SDS011;39421;53.204;6.568;2022-07-18T14:01:50;4.40;;;3.03;;
53533;SDS011;39421;53.204;6.568;2022-07-18T14:04:16;4.93;;;3.20;;
53533;SDS011;39421;53.204;6.568;2022-07-18T14:06:43;4.55;;;2.83;;
53533;SDS011;39421;53.204;6.568;2022-07-18T14:09:09;5.00;;;3.13;;
53533;SDS011;39421;53.204;6.568;2022-07-18T14:11:35;4.47;;;3.20;;
53533;SDS011;39421;53.204;6.568;2022-07-18T14:14:02;4.95;;;3.00;;
53533;SDS011;39421;53.204;6.568;2022-07-18T14:16:29;5.20;;;3.17;;
53533;SDS011;39421;53.204;6.568;2022-07-18T14:18:55;4.38;;;2.95;;
53533;SDS011;39421;53.204;6.568;2022-07-18T14:21:21;4.68;;;3.10;;
53533;SDS011;39421;53.204;6.568;2022-07-18T14:23:47;4.00;;;3.33;;
53533;SDS011;39421;53.204;6.568;2022-07-18T14:26:13;5.53;;;3.20;;
53533;SDS011;39421;53.204;6.568;2022-07-18T14:28:39;6.55;;;3.35;;
53533;SDS011;39421;53.204;6.568;2022-07-18T14:31:05;3.67;;;2.83;;
53533;SDS011;39421;53.204;6.568;2022-07-18T14:33:30;3.87;;;2.90;;
53533;SDS011;39421;53.204;6.568;2022-07-18T14:35:56;5.18;;;3.40;;
53533;SDS011;39421;53.204;6.568;2022-07-18T14:38:24;4.40;;;2.93;;
53533;SDS011;39421;53.204;6.568;2022-07-18T14:40:50;6.55;;;3.10;;
53533;SDS011;39421;53.204;6.568;2022-07-18T14:43:15;4.57;;;2.90;;
53533;SDS011;39421;53.204;6.568;2022-07-18T14:45:41;9.57;;;3.47;;
53533;SDS011;39421;53.204;6.568;2022-07-18T14:48:07;4.78;;;2.97;;
53533;SDS011;39421;53.204;6.568;2022-07-18T14:50:33;8.02;;;3.50;;
53533;SDS011;39421;53.204;6.568;2022-07-18T14:52:59;5.63;;;3.50;;
53533;SDS011;39421;53.204;6.568;2022-07-18T14:55:24;10.68;;;3.35;;
53533;SDS011;39421;53.204;6.568;2022-07-18T14:57:50;6.05;;;3.10;;
53533;SDS011;39421;53.204;6.568;2022-07-18T15:00:16;4.80;;;2.70;;
53533;SDS011;39421;53.204;6.568;2022-07-18T15:02:42;7.10;;;3.15;;
53533;SDS011;39421;53.204;6.568;2022-07-18T15:05:08;4.28;;;2.70;;
53533;SDS011;39421;53.204;6.568;2022-07-18T15:07:34;5.28;;;2.95;;
53533;SDS011;39421;53.204;6.568;2022-07-18T15:10:00;3.67;;;2.60;;
53533;SDS011;39421;53.204;6.568;2022-07-18T15:12:25;4.10;;;2.60;;
53533;SDS011;39421;53.204;6.568;2022-07-18T15:14:51;4.73;;;3.00;;
53533;SDS011;39421;53.204;6.568;2022-07-18T15:17:19;5.38;;;3.00;;
53533;SDS011;39421;53.204;6.568;2022-07-18T15:19:46;6.07;;;3.10;;
53533;SDS011;39421;53.204;6.568;2022-07-18T15:22:12;6.25;;;3.05;;
53533;SDS011;39421;53.204;6.568;2022-07-18T15:24:37;4.90;;;2.90;;
53533;SDS011;39421;53.204;6.568;2022-07-18T15:27:03;3.92;;;2.97;;
53533;SDS011;39421;53.204;6.568;2022-07-18T15:29:29;4.00;;;2.47;;